createdAt,value
2019-04-10T00:01:25.833Z,10.70
2019-04-10T00:03:55.154Z,10.70
2019-04-10T00:06:24.276Z,10.70
2019-04-10T00:08:53.136Z,10.70
2019-04-10T00:11:22.784Z,10.70
2019-04-10T00:13:51.518Z,10.70
2019-04-10T00:16:20.989Z,10.70
2019-04-10T00:18:50.556Z,10.70
2019-04-10T00:21:19.616Z,10.70
2019-04-10T00:23:49.198Z,10.70
2019-04-10T00:26:18.425Z,10.70
2019-04-10T00:28:47.733Z,10.70
2019-04-10T00:31:16.589Z,10.60
2019-04-10T00:33:45.207Z,10.60
2019-04-10T00:36:14.160Z,10.60
2019-04-10T00:38:42.786Z,10.60
2019-04-10T00:41:12.110Z,10.60
2019-04-10T00:43:41.552Z,10.60
2019-04-10T00:46:10.351Z,10.60
2019-04-10T00:48:39.949Z,10.50
2019-04-10T00:51:08.878Z,10.50
2019-04-10T00:53:38.727Z,10.50
2019-04-10T00:56:08.407Z,10.50
2019-04-10T00:58:37.545Z,10.50
2019-04-10T01:01:07.734Z,10.50
2019-04-10T01:03:42.570Z,10.50
2019-04-10T01:06:11.707Z,10.50
2019-04-10T01:08:40.557Z,10.50
2019-04-10T01:11:10.614Z,10.50
2019-04-10T01:13:39.833Z,10.50
2019-04-10T01:16:09.220Z,10.50
2019-04-10T01:18:37.821Z,10.50
2019-04-10T01:21:06.743Z,10.50
2019-04-10T01:23:35.970Z,10.50
2019-04-10T01:26:05.214Z,10.50
2019-04-10T01:28:33.906Z,10.40
2019-04-10T01:31:02.773Z,10.40
2019-04-10T01:33:32.506Z,10.40
2019-04-10T01:36:01.169Z,10.40
2019-04-10T01:38:49.489Z,10.40
2019-04-10T01:41:37.575Z,10.40
2019-04-10T01:44:25.414Z,10.30
2019-04-10T01:50:06.369Z,10.30
2019-04-10T01:52:55.223Z,10.30
2019-04-10T01:55:43.655Z,10.30
2019-04-10T01:58:31.502Z,10.30
2019-04-10T02:04:31.081Z,10.30
2019-04-10T02:07:20.184Z,10.30
2019-04-10T02:10:10.056Z,10.30
2019-04-10T02:12:59.031Z,10.30
2019-04-10T02:15:47.211Z,10.20
2019-04-10T02:18:35.295Z,10.20
2019-04-10T02:35:16.936Z,10.20
2019-04-10T02:43:37.987Z,10.10
2019-04-10T02:46:19.696Z,10.10
2019-04-10T02:49:00.771Z,10.10
2019-04-10T02:51:41.312Z,10.10
2019-04-10T02:54:22.839Z,10.10
2019-04-10T02:57:03.644Z,10.10
2019-04-10T02:59:45.324Z,10.10
2019-04-10T03:02:28.822Z,10.10
2019-04-10T03:05:09.463Z,10.10
2019-04-10T03:07:52.471Z,10.10
2019-04-10T03:10:41.128Z,10.10
2019-04-10T03:13:17.777Z,10.10
2019-04-10T03:15:59.926Z,10.10
2019-04-10T03:18:41.549Z,10.10
2019-04-10T03:21:22.886Z,10.10
2019-04-10T03:26:52.372Z,10.10
2019-04-10T03:29:33.210Z,10.10
2019-04-10T03:32:36.660Z,10.00
2019-04-10T03:35:22.780Z,10.00
2019-04-10T03:38:05.660Z,10.00
2019-04-10T03:40:46.639Z,10.00
2019-04-10T03:43:27.867Z,10.00
2019-04-10T03:46:09.035Z,9.90
2019-04-10T03:48:49.689Z,9.90
2019-04-10T03:51:30.458Z,9.90
2019-04-10T03:54:11.115Z,9.90
2019-04-10T03:56:52.402Z,9.90
2019-04-10T03:59:32.927Z,9.90
2019-04-10T04:02:13.701Z,9.90
2019-04-10T04:04:55.931Z,9.90
2019-04-10T04:07:36.794Z,9.90
2019-04-10T04:10:18.280Z,9.90
2019-04-10T04:13:00.198Z,9.80
2019-04-10T04:15:42.128Z,9.80
2019-04-10T04:18:22.775Z,9.80
2019-04-10T04:21:03.537Z,9.70
2019-04-10T04:23:44.687Z,9.70
2019-04-10T04:26:25.647Z,9.70
2019-04-10T04:29:06.064Z,9.60
2019-04-10T04:31:46.715Z,9.60
2019-04-10T04:34:27.443Z,9.60
2019-04-10T04:37:08.460Z,9.60
2019-04-10T04:39:48.996Z,9.50
2019-04-10T04:42:30.696Z,9.50
2019-04-10T04:45:11.511Z,9.50
2019-04-10T04:47:52.275Z,9.40
2019-04-10T04:50:34.246Z,9.40
2019-04-10T04:53:16.240Z,9.40
2019-04-10T04:55:57.651Z,9.40
2019-04-10T04:58:38.588Z,9.40
2019-04-10T05:01:19.148Z,9.30
2019-04-10T05:04:00.376Z,9.30
2019-04-10T05:06:41.811Z,9.20
2019-04-10T05:09:33.110Z,9.20
2019-04-10T05:12:05.623Z,9.20
2019-04-10T05:14:46.711Z,9.10
2019-04-10T05:17:27.431Z,9.10
2019-04-10T05:20:09.066Z,9.10
2019-04-10T05:22:52.072Z,9.10
2019-04-10T05:25:34.347Z,9.10
2019-04-10T05:33:43.329Z,9.10
2019-04-10T05:36:25.592Z,9.10
2019-04-10T05:39:07.055Z,9.10
2019-04-10T05:44:34.049Z,9.10
2019-04-10T05:50:02.047Z,9.20
2019-04-10T05:55:28.702Z,9.20
2019-04-10T05:58:13.423Z,9.20
2019-04-10T06:11:58.516Z,9.20
2019-04-10T06:14:39.889Z,9.20
2019-04-10T06:17:20.620Z,9.20
2019-04-10T06:20:01.878Z,9.10
2019-04-10T06:22:43.842Z,9.10
2019-04-10T06:25:25.261Z,9.10
2019-04-10T06:30:52.338Z,9.10
2019-04-10T06:33:34.010Z,9.10
2019-04-10T06:36:15.759Z,9.10
2019-04-10T06:38:57.169Z,9.10
2019-04-10T06:41:38.946Z,9.10
2019-04-10T06:44:20.234Z,9.10
2019-04-10T06:47:02.077Z,9.10
2019-04-10T06:49:42.530Z,9.20
2019-04-10T06:52:23.685Z,9.20
2019-04-10T06:55:05.069Z,9.20
2019-04-10T06:57:49.918Z,9.10
2019-04-10T07:00:28.583Z,9.10
2019-04-10T07:03:10.616Z,9.20
2019-04-10T07:06:03.377Z,9.20
2019-04-10T07:08:40.202Z,9.20
2019-04-10T07:11:31.387Z,9.20
2019-04-10T07:14:18.614Z,9.20
2019-04-10T07:20:09.404Z,9.20
2019-04-10T07:22:51.285Z,9.10
2019-04-10T07:25:32.030Z,9.20
2019-04-10T07:28:13.706Z,9.20
2019-04-10T07:30:59.429Z,9.20
2019-04-10T07:33:37.296Z,9.20
2019-04-10T07:36:18.214Z,9.30
2019-04-10T07:38:59.303Z,9.30
2019-04-10T07:41:43.429Z,9.30
2019-04-10T07:50:08.537Z,10.60
2019-04-10T07:55:34.374Z,10.30
2019-04-10T08:09:16.729Z,9.80
2019-04-10T08:20:30.914Z,9.80
2019-04-10T08:23:12.324Z,9.90
2019-04-10T08:25:53.755Z,10.00
2019-04-10T08:28:35.105Z,10.00
2019-04-10T08:31:15.458Z,10.10
2019-04-10T08:33:56.818Z,10.20
2019-04-10T08:36:37.847Z,10.20
2019-04-10T08:39:31.769Z,10.20
2019-04-10T08:42:02.083Z,10.20
2019-04-10T08:44:42.739Z,10.30
2019-04-10T08:47:24.838Z,10.30
2019-04-10T08:50:05.616Z,10.30
2019-04-10T08:52:47.015Z,10.40
2019-04-10T08:55:28.296Z,10.40
2019-04-10T08:58:08.971Z,10.50
2019-04-10T09:00:50.945Z,10.60
2019-04-10T09:03:32.802Z,10.60
2019-04-10T09:06:13.455Z,10.70
2019-04-10T09:08:54.382Z,10.80
2019-04-10T09:11:35.439Z,10.70
2019-04-10T09:14:17.054Z,10.70
2019-04-10T09:16:58.624Z,10.80
2019-04-10T09:19:40.266Z,10.80
2019-04-10T09:22:20.566Z,10.70
2019-04-10T09:25:01.325Z,10.70
2019-04-10T09:27:42.878Z,10.70
2019-04-10T09:30:24.746Z,10.70
2019-04-10T09:33:15.963Z,10.80
2019-04-10T09:35:48.779Z,10.80
2019-04-10T09:38:30.532Z,11.00
2019-04-10T09:41:11.915Z,11.10
2019-04-10T09:43:53.922Z,11.20
2019-04-10T09:46:35.310Z,11.30
2019-04-10T09:49:16.591Z,11.40
2019-04-10T09:51:58.540Z,11.50
2019-04-10T09:54:40.386Z,11.60
2019-04-10T09:57:20.959Z,11.70
2019-04-10T10:00:03.163Z,11.90
2019-04-10T10:02:45.254Z,12.00
2019-04-10T10:05:26.552Z,12.10
2019-04-10T10:08:08.078Z,12.10
2019-04-10T10:10:49.510Z,12.20
2019-04-10T10:13:30.306Z,12.30
2019-04-10T10:21:46.238Z,12.40
2019-04-10T10:24:27.069Z,12.30
2019-04-10T10:29:58.056Z,12.20
2019-04-10T10:32:39.455Z,12.20
2019-04-10T10:35:19.963Z,12.20
2019-04-10T10:38:01.284Z,12.20
2019-04-10T10:40:41.878Z,12.20
2019-04-10T10:43:22.749Z,12.30
2019-04-10T10:46:03.418Z,12.40
2019-04-10T10:48:44.859Z,12.50
2019-04-10T10:51:26.769Z,12.60
2019-04-10T10:54:08.563Z,12.70
2019-04-10T10:56:49.422Z,12.80
2019-04-10T10:59:30.435Z,12.80
2019-04-10T11:04:53.865Z,13.10
2019-04-10T11:07:35.407Z,13.20
2019-04-10T11:10:19.774Z,13.30
2019-04-10T11:15:43.661Z,14.20
2019-04-10T11:18:24.638Z,14.80
2019-04-10T11:21:08.869Z,15.40
2019-04-10T11:23:47.409Z,15.90
2019-04-10T11:29:14.415Z,16.80
2019-04-10T11:34:49.312Z,17.70
2019-04-10T11:40:21.048Z,17.60
2019-04-10T12:05:19.173Z,16.50
2019-04-10T12:13:22.166Z,16.30
2019-04-10T12:16:03.030Z,16.20
2019-04-10T12:18:44.135Z,16.10
2019-04-10T12:21:24.663Z,16.10
2019-04-10T12:24:05.502Z,16.00
2019-04-10T12:26:47.761Z,16.00
2019-04-10T12:29:29.080Z,16.10
2019-04-10T12:32:09.883Z,16.10
2019-04-10T12:34:50.904Z,16.20
2019-04-10T12:37:31.519Z,16.20
2019-04-10T12:40:12.142Z,16.20
2019-04-10T12:42:52.616Z,16.10
2019-04-10T12:45:33.515Z,16.10
2019-04-10T12:48:15.007Z,16.00
2019-04-10T12:50:58.710Z,16.20
2019-04-10T12:53:40.105Z,16.70
2019-04-10T12:56:22.015Z,17.00
2019-04-10T12:59:03.434Z,17.40
2019-04-10T13:01:44.891Z,17.50
2019-04-10T13:04:26.150Z,17.40
2019-04-10T13:07:07.470Z,17.30
2019-04-10T13:09:48.493Z,17.30
2019-04-10T13:12:29.281Z,17.60
2019-04-10T13:15:10.954Z,18.00
2019-04-10T13:17:51.771Z,18.30
2019-04-10T13:20:33.681Z,18.50
2019-04-10T13:23:16.040Z,18.50
2019-04-10T13:26:01.018Z,18.50
2019-04-10T13:28:39.679Z,18.50
2019-04-10T13:31:21.433Z,18.40
2019-04-10T13:34:03.062Z,18.40
2019-04-10T13:36:44.255Z,18.60
2019-04-10T13:39:25.158Z,18.90
2019-04-10T13:42:07.179Z,18.80
2019-04-10T13:44:48.891Z,18.70
2019-04-10T13:47:30.498Z,18.50
2019-04-10T13:50:11.016Z,18.30
2019-04-10T13:58:19.839Z,19.10
2019-04-10T14:01:00.959Z,19.30
2019-04-10T14:06:31.801Z,19.20
2019-04-10T14:09:31.273Z,19.10
2019-04-10T14:11:57.653Z,19.30
2019-04-10T14:14:45.767Z,19.10
2019-04-10T14:17:33.623Z,19.30
2019-04-10T14:20:15.231Z,19.10
2019-04-10T14:26:24.497Z,18.70
2019-04-10T14:29:09.310Z,18.40
2019-04-10T14:34:38.892Z,18.00
2019-04-10T14:37:19.259Z,18.10
2019-04-10T14:40:00.471Z,18.50
2019-04-10T14:50:59.805Z,19.20
2019-04-10T15:05:03.698Z,18.80
2019-04-10T15:07:44.886Z,18.70
2019-04-10T15:10:25.450Z,18.30
2019-04-10T15:13:10.893Z,18.10
2019-04-10T15:15:50.293Z,18.30
2019-04-10T15:18:33.016Z,18.40
2019-04-10T15:21:14.482Z,18.50
2019-04-10T15:23:55.927Z,18.30
2019-04-10T15:26:36.458Z,18.00
2019-04-10T15:29:16.774Z,17.80
2019-04-10T15:31:57.833Z,17.60
2019-04-10T15:34:37.489Z,17.60
2019-04-10T15:37:25.598Z,17.80
2019-04-10T15:40:19.790Z,18.00
2019-04-10T15:43:03.348Z,18.10
2019-04-10T15:48:58.484Z,18.00
2019-04-10T15:51:48.027Z,18.00
2019-04-10T15:54:43.523Z,18.00
2019-04-10T15:57:44.403Z,18.20
2019-04-10T16:03:30.340Z,18.40
2019-04-10T16:06:19.422Z,18.50
2019-04-10T16:09:07.329Z,18.40
2019-04-10T16:12:14.585Z,18.30
2019-04-10T16:20:54.807Z,17.90
2019-04-10T16:23:42.480Z,17.90
2019-04-10T16:43:29.149Z,16.80
2019-04-10T16:51:50.210Z,16.30
2019-04-10T16:54:31.276Z,16.10
2019-04-10T16:57:12.146Z,15.80
2019-04-10T16:59:52.911Z,15.60
2019-04-10T17:02:33.833Z,15.40
2019-04-10T17:05:14.730Z,15.20
2019-04-10T17:07:55.462Z,14.90
2019-04-10T17:10:36.688Z,14.70
2019-04-10T17:16:03.373Z,14.30
2019-04-10T17:18:45.265Z,14.20
2019-04-10T17:21:29.011Z,14.10
2019-04-10T17:24:09.186Z,14.00
2019-04-10T17:26:51.631Z,13.80
2019-04-10T17:29:33.420Z,13.70
2019-04-10T17:32:15.206Z,13.70
2019-04-10T17:34:56.978Z,13.70
2019-04-10T17:37:40.123Z,13.70
2019-04-10T17:40:31.213Z,13.60
2019-04-10T17:43:03.175Z,13.50
2019-04-10T17:45:44.842Z,13.40
2019-04-10T17:48:26.002Z,13.40
2019-04-10T17:51:07.962Z,13.30
2019-04-10T17:56:36.648Z,13.10
2019-04-10T18:02:05.298Z,13.00
2019-04-10T18:07:36.336Z,12.80
2019-04-10T18:13:06.272Z,12.60
2019-04-10T18:15:50.637Z,12.50
2019-04-10T18:21:16.990Z,12.40
2019-04-10T18:32:15.999Z,12.20
2019-04-10T19:09:24.625Z,11.60
2019-04-10T19:12:02.496Z,11.60
2019-04-10T19:14:44.631Z,11.60
2019-04-10T19:17:26.674Z,11.60
2019-04-10T19:20:08.930Z,11.50
2019-04-10T19:22:50.656Z,11.40
2019-04-10T19:25:32.420Z,11.40
2019-04-10T19:28:12.987Z,11.40
2019-04-10T19:34:07.281Z,11.30
2019-04-10T19:36:48.661Z,11.30
2019-04-10T19:39:30.005Z,11.20
2019-04-10T19:42:11.229Z,11.20
2019-04-10T19:44:53.058Z,11.10
2019-04-10T19:47:34.740Z,11.10
2019-04-10T19:50:15.527Z,11.10
2019-04-10T19:52:57.061Z,11.00
2019-04-10T19:55:37.974Z,11.00
2019-04-10T20:06:50.771Z,10.80
2019-04-10T20:09:32.654Z,10.80
2019-04-10T20:12:13.290Z,10.80
2019-04-10T20:14:55.291Z,10.70
2019-04-10T20:17:35.949Z,10.70
2019-04-10T20:20:17.299Z,10.60
2019-04-10T20:22:58.294Z,10.60
2019-04-10T20:25:40.737Z,10.60
2019-04-10T20:31:17.221Z,10.50
2019-04-10T20:33:59.111Z,10.50
2019-04-10T20:36:40.184Z,10.40
2019-04-10T20:39:21.105Z,10.40
2019-04-10T20:42:02.628Z,10.30
2019-04-10T20:44:43.466Z,10.30
2019-04-10T20:47:24.703Z,10.20
2019-04-10T20:50:05.877Z,10.20
2019-04-10T20:52:47.256Z,10.10
2019-04-10T20:55:28.197Z,10.10
2019-04-10T20:58:09.658Z,10.10
2019-04-10T21:03:36.425Z,10.00
2019-04-10T21:06:17.605Z,10.00
2019-04-10T21:08:59.103Z,10.00
2019-04-10T21:11:39.850Z,9.90
2019-04-10T21:14:21.149Z,9.90
2019-04-10T21:17:02.406Z,9.90
2019-04-10T21:19:43.296Z,9.80
2019-04-10T21:25:12.739Z,9.70
2019-04-10T21:27:55.073Z,9.70
2019-04-10T21:33:24.608Z,9.70
2019-04-10T21:36:09.492Z,9.70
2019-04-10T21:41:39.255Z,9.60
2019-04-10T22:17:39.038Z,9.10
2019-04-10T22:20:20.067Z,9.10
2019-04-10T22:31:33.083Z,8.90
2019-04-10T22:34:15.615Z,8.90
2019-04-10T22:36:56.322Z,8.90
2019-04-10T22:39:36.827Z,8.90
2019-04-10T22:42:17.718Z,8.90
2019-04-10T22:44:58.867Z,8.90
2019-04-10T22:47:39.499Z,8.90
2019-04-10T22:50:20.422Z,8.80
2019-04-10T22:53:01.498Z,8.70
2019-04-10T22:55:42.696Z,8.80
2019-04-10T22:58:24.635Z,8.80
2019-04-10T23:01:06.871Z,8.80
2019-04-10T23:03:47.766Z,8.70
2019-04-10T23:06:29.164Z,8.70
2019-04-10T23:09:11.835Z,8.70
2019-04-10T23:11:52.675Z,8.60
2019-04-10T23:14:34.444Z,8.60
2019-04-10T23:17:15.507Z,8.60
2019-04-10T23:19:56.440Z,8.60
2019-04-10T23:22:37.680Z,8.60
2019-04-10T23:25:18.686Z,8.60
2019-04-10T23:28:01.064Z,8.60
2019-04-10T23:30:41.499Z,8.60
2019-04-10T23:33:22.543Z,8.60
2019-04-10T23:36:02.912Z,8.50
2019-04-10T23:38:43.923Z,8.40
2019-04-10T23:41:25.434Z,8.40
2019-04-10T23:44:06.831Z,8.40
2019-04-10T23:46:47.448Z,8.40
2019-04-10T23:49:27.894Z,8.30
2019-04-10T23:52:09.639Z,8.40
2019-04-10T23:54:51.369Z,8.30
2019-04-10T23:57:32.200Z,8.30
